Terminal Aerodrome Forecast
Issued by NWS Wilmington, OH

Current Version | Previous Version | Text Only | Print | Product List | Glossary Off
Versions: 1 2 3 4 5 6 7 8 9 10 11 12 13 14 15 16

327
FTUS41 KILN 251126
TAFILN
TAF
KILN 251126Z 2512/2612 20011G20KT P6SM SCT130 BKN200
     FM252300 15006KT P6SM BKN130
     FM260600 14007KT P6SM BKN110
     FM260800 15006KT P6SM -SHRA SCT040 OVC080=

USA.gov is the U.S. government's official web portal to all federal, state and local government web resources and services.